Time;durP1;ratioP1;P1;durP2;ratioP2;P2;SDS_P1;SDS_P2;PMS_P1;PMS_P2;Temp;Humidity;BMP_temperature;BMP_pressure;BME280_temperature;BME280_humidity;BME280_pressure;Samples;Min_cycle;Max_cycle;Signal;HPM_P1;HPM_P2
2022/05/14 00:00:39;;;;;;;6.63;4.53;;;;;;;13.01;82.78;98611.69;4143310;28;20638;-86
2022/05/14 00:02:43;;;;;;;6.60;4.57;;;;;;;12.99;82.52;98624.06;4130692;28;20645;-86
2022/05/14 00:04:46;;;;;;;7.07;4.33;;;;;;;12.94;82.93;98620.91;4113255;28;20643;-85
2022/05/14 00:06:51;;;;;;;4.80;4.00;;;;;;;12.90;83.53;98624.69;4112357;28;20661;-86
2022/05/14 00:08:55;;;;;;;4.77;3.90;;;;;;;12.86;84.15;98620.59;4134826;28;21209;-86
2022/05/14 00:13:19;;;;;;;7.13;4.60;;;;;;;12.83;83.40;98617.38;4110019;28;20674;-85
2022/05/14 00:15:23;;;;;;;6.57;4.43;;;;;;;12.80;84.52;98609.69;4128074;28;21259;-86
2022/05/14 00:17:26;;;;;;;6.53;4.30;;;;;;;12.81;83.23;98606.97;4132048;28;20740;-86
2022/05/14 00:19:30;;;;;;;6.00;4.00;;;;;;;12.79;83.78;98614.09;4129829;28;20760;-86
2022/05/14 00:21:35;;;;;;;6.57;4.13;;;;;;;12.78;84.25;98608.97;4111722;28;21075;-86
2022/05/14 00:23:40;;;;;;;6.10;3.73;;;;;;;12.75;82.96;98607.38;4131901;28;20637;-86
2022/05/14 00:25:43;;;;;;;5.33;3.60;;;;;;;12.71;84.17;98610.31;4144082;28;21234;-86
2022/05/14 00:27:47;;;;;;;7.47;3.77;;;;;;;12.69;83.33;98609.59;4148474;28;20737;-86
2022/05/14 00:29:50;;;;;;;5.50;4.00;;;;;;;12.66;83.51;98614.19;4112206;28;20723;-86
2022/05/14 00:31:54;;;;;;;7.23;4.17;;;;;;;12.63;84.47;98606.53;4128791;28;21280;-86
2022/05/14 00:33:57;;;;;;;7.17;4.40;;;;;;;12.60;84.22;98611.97;4131711;28;21058;-86
2022/05/14 00:36:00;;;;;;;5.10;4.60;;;;;;;12.61;84.62;98606.66;4126567;28;20666;-86
2022/05/14 00:38:05;;;;;;;4.60;3.80;;;;;;;12.60;84.33;98606.75;4111499;28;20628;-86
2022/05/14 00:40:14;;;;;;;6.17;4.60;;;;;;;12.57;84.18;98605.19;4128565;28;20971;-86
2022/05/14 00:42:18;;;;;;;5.23;4.70;;;;;;;12.52;83.86;98604.66;4146939;28;20643;-86
2022/05/14 00:44:21;;;;;;;6.57;3.93;;;;;;;12.49;85.15;98606.66;4129197;28;20634;-86
2022/05/14 00:46:26;;;;;;;8.37;3.97;;;;;;;12.47;84.10;98606.75;4113736;28;20654;-86
2022/05/14 00:48:39;;;;;;;7.73;4.40;;;;;;;12.43;84.97;98599.22;4146158;28;20640;-86
2022/05/14 00:50:45;;;;;;;5.87;4.40;;;;;;;12.41;83.79;98599.31;4144019;28;20694;-85
2022/05/14 00:52:48;;;;;;;5.30;4.13;;;;;;;12.38;85.36;98599.53;4130087;28;21228;-86
2022/05/14 00:54:55;;;;;;;5.10;4.30;;;;;;;12.36;83.33;98597.97;4127391;28;21073;-86
2022/05/14 00:57:02;;;;;;;4.33;3.93;;;;;;;12.35;84.06;98598.91;4130787;28;21295;-85
2022/05/14 00:59:08;;;;;;;5.43;3.90;;;;;;;12.34;84.60;98607.66;4129875;28;20674;-86
2022/05/14 01:01:12;;;;;;;5.07;3.93;;;;;;;12.34;84.42;98605.91;4128547;28;20633;-86
2022/05/14 01:03:16;;;;;;;5.97;4.00;;;;;;;12.25;84.68;98598.69;4126281;28;21267;-86
2022/05/14 01:05:20;;;;;;;7.97;4.00;;;;;;;12.16;82.72;98603.66;4114554;28;20647;-86
2022/05/14 01:07:24;;;;;;;5.37;4.03;;;;;;;12.08;84.26;98598.13;4131938;28;20639;-86
2022/05/14 01:09:28;;;;;;;6.23;4.07;;;;;;;12.04;83.23;98593.19;4114033;28;20638;-86
2022/05/14 01:11:32;;;;;;;5.50;4.53;;;;;;;12.02;84.05;98595.91;4110408;28;20740;-86
2022/05/14 01:13:38;;;;;;;4.90;4.40;;;;;;;12.00;85.66;98596.97;4128057;28;20695;-86
2022/05/14 01:15:47;;;;;;;4.40;3.97;;;;;;;11.98;84.85;98591.84;4126257;28;20705;-85
2022/05/14 01:17:51;;;;;;;5.10;4.43;;;;;;;11.97;84.82;98584.91;4126552;28;20747;-86
2022/05/14 01:19:55;;;;;;;5.40;3.63;;;;;;;12.01;84.71;98590.78;4130269;28;20625;-86
2022/05/14 01:22:11;;;;;;;5.53;4.30;;;;;;;11.99;83.82;98596.09;4111984;28;20636;-86
2022/05/14 01:26:52;;;;;;;6.27;4.20;;;;;;;11.95;85.61;98589.41;4127623;28;20668;-86
2022/05/14 01:28:56;;;;;;;7.60;3.90;;;;;;;11.90;85.74;98588.03;4144094;28;20644;-86
2022/05/14 01:31:01;;;;;;;8.90;4.40;;;;;;;11.86;84.57;98590.03;4128136;28;20651;-86
2022/05/14 01:33:07;;;;;;;5.70;3.90;;;;;;;11.83;85.78;98587.63;4126405;28;20643;-85
2022/05/14 01:35:16;;;;;;;10.10;4.10;;;;;;;11.83;84.82;98590.22;4113179;28;21271;-85
2022/05/14 01:37:20;;;;;;;6.63;4.13;;;;;;;11.82;84.86;98583.31;4130308;28;20679;-86
2022/05/14 01:39:25;;;;;;;6.97;4.30;;;;;;;11.80;85.07;98603.50;4117025;28;21039;-85
2022/05/14 01:41:29;;;;;;;7.13;4.10;;;;;;;11.79;85.51;98590.53;4110015;28;20978;-86
2022/05/14 01:43:34;;;;;;;6.33;3.87;;;;;;;11.77;84.89;98589.75;4109540;28;21257;-86
2022/05/14 01:45:37;;;;;;;6.57;4.27;;;;;;;11.76;84.14;98594.16;4131378;28;20724;-85
2022/05/14 01:47:41;;;;;;;8.60;4.10;;;;;;;11.79;85.88;98591.34;4130307;28;21270;-85
2022/05/14 01:49:45;;;;;;;4.73;4.10;;;;;;;11.76;86.00;98586.31;4133679;28;20643;-85
2022/05/14 01:51:48;;;;;;;6.03;4.10;;;;;;;11.77;85.49;98605.44;4131860;28;20676;-86
2022/05/14 01:53:53;;;;;;;4.70;4.10;;;;;;;11.72;84.79;98591.84;4128112;28;20640;-85
2022/05/14 01:55:56;;;;;;;6.13;4.80;;;;;;;11.64;85.33;98598.53;4129605;28;20642;-85
2022/05/14 01:58:00;;;;;;;4.47;3.80;;;;;;;11.61;85.62;98590.88;4107723;28;20698;-86
2022/05/14 02:00:17;;;;;;;7.97;4.30;;;;;;;11.58;84.49;98591.91;4107584;28;20744;-85
2022/05/14 02:02:25;;;;;;;5.93;4.07;;;;;;;11.48;84.56;98600.44;4144878;28;21225;-85
2022/05/14 02:04:29;;;;;;;4.40;3.80;;;;;;;11.47;84.91;98593.50;4144359;28;20650;-86
2022/05/14 02:06:33;;;;;;;5.47;4.00;;;;;;;11.44;86.01;98596.28;4128650;28;20634;-85
2022/05/14 02:08:38;;;;;;;5.50;4.27;;;;;;;11.41;85.74;98597.34;4134284;28;21064;-85
2022/05/14 02:10:42;;;;;;;5.93;4.10;;;;;;;11.41;85.52;98591.25;4110564;28;20637;-86
2022/05/14 02:12:46;;;;;;;4.70;4.20;;;;;;;11.42;84.99;98588.56;4126525;28;20630;-85
2022/05/14 02:14:53;;;;;;;5.53;4.10;;;;;;;11.41;85.06;98592.13;4144254;28;20666;-86
2022/05/14 02:16:58;;;;;;;9.87;4.40;;;;;;;11.40;85.27;98593.03;4126695;28;20730;-85
2022/05/14 02:19:05;;;;;;;6.50;5.00;;;;;;;11.40;84.85;98594.84;4131871;28;20663;-85
2022/05/14 02:21:09;;;;;;;6.80;4.20;;;;;;;11.39;85.75;98590.53;4109817;28;23152;-85
2022/05/14 02:23:13;;;;;;;6.30;4.27;;;;;;;11.35;84.52;98589.03;4126933;28;20670;-85
2022/05/14 02:25:19;;;;;;;5.37;4.20;;;;;;;11.31;86.12;98590.19;4124524;28;20665;-85
2022/05/14 02:27:26;;;;;;;5.83;4.40;;;;;;;11.31;85.85;98593.63;4141838;28;21196;-85
2022/05/14 02:29:50;;;;;;;6.03;4.40;;;;;;;11.31;86.02;98595.41;4104215;28;20640;-85
2022/05/14 02:31:53;;;;;;;4.20;3.80;;;;;;;11.31;85.79;98595.41;4108276;28;20694;-85
2022/05/14 02:33:57;;;;;;;5.10;3.47;;;;;;;11.27;86.11;98586.09;4109099;28;20650;-85
2022/05/14 02:36:01;;;;;;;4.30;3.50;;;;;;;11.25;85.86;98590.56;4109465;28;20658;-85
2022/05/14 02:38:05;;;;;;;4.60;3.63;;;;;;;11.21;85.14;98594.28;4128120;28;21245;-85
2022/05/14 02:40:09;;;;;;;6.83;3.83;;;;;;;11.17;85.05;98597.19;4142672;28;21193;-85
2022/05/14 02:42:13;;;;;;;9.93;4.37;;;;;;;11.16;84.93;98598.97;4143427;28;20638;-85
2022/05/14 02:44:17;;;;;;;5.10;4.00;;;;;;;11.13;85.67;98596.56;4111407;28;21248;-86
2022/05/14 02:46:20;;;;;;;8.57;4.13;;;;;;;11.13;84.88;98600.94;4127681;28;20643;-85
2022/05/14 02:48:24;;;;;;;7.07;4.13;;;;;;;11.10;85.71;98595.91;4144770;28;20635;-85
2022/05/14 02:50:29;;;;;;;6.03;3.83;;;;;;;11.09;85.89;98605.50;4111086;28;20628;-86
2022/05/14 02:52:33;;;;;;;5.07;4.43;;;;;;;11.10;85.68;98596.75;4129433;28;21082;-85
2022/05/14 02:54:38;;;;;;;5.13;3.77;;;;;;;11.09;85.17;98589.00;4113744;28;21251;-85
2022/05/14 02:56:42;;;;;;;5.67;3.90;;;;;;;11.06;85.38;98603.09;4144920;28;20647;-85
2022/05/14 03:01:07;;;;;;;5.60;3.80;;;;;;;10.96;85.28;98596.78;4127269;28;21023;-85
2022/05/14 03:03:10;;;;;;;5.13;3.77;;;;;;;10.92;85.85;98602.28;4143877;28;20722;-85
2022/05/14 03:05:15;;;;;;;5.60;4.00;;;;;;;10.92;86.31;98607.50;4129811;28;21065;-85
2022/05/14 03:07:21;;;;;;;11.00;4.27;;;;;;;10.95;85.20;98607.31;4109993;28;20703;-85
2022/05/14 03:09:25;;;;;;;6.47;4.40;;;;;;;10.91;86.10;98611.84;4110290;28;20652;-86
2022/05/14 03:11:31;;;;;;;5.20;4.37;;;;;;;10.88;86.07;98606.00;4108478;28;20637;-85
2022/05/14 03:13:35;;;;;;;4.90;3.47;;;;;;;10.85;85.06;98611.41;4126994;28;21253;-85
2022/05/14 03:15:38;;;;;;;6.77;3.80;;;;;;;10.83;85.58;98608.06;4109709;28;20673;-85
2022/05/14 03:17:42;;;;;;;5.30;4.40;;;;;;;10.82;86.43;98614.19;4126916;28;20635;-85
2022/05/14 03:19:46;;;;;;;4.90;4.00;;;;;;;10.77;85.85;98612.81;4114268;28;20694;-85
2022/05/14 03:21:49;;;;;;;5.40;4.10;;;;;;;10.74;86.05;98603.41;4127328;28;20628;-86
2022/05/14 03:23:54;;;;;;;5.30;4.07;;;;;;;10.71;85.78;98602.75;4145808;28;21277;-85
2022/05/14 03:25:57;;;;;;;4.90;3.63;;;;;;;10.68;85.79;98603.75;4144013;28;21052;-86
2022/05/14 03:28:01;;;;;;;5.23;3.93;;;;;;;10.67;86.27;98601.25;4141443;28;20684;-85
2022/05/14 03:30:05;;;;;;;6.30;4.50;;;;;;;10.68;85.51;98608.16;4143917;28;20639;-86
2022/05/14 03:32:09;;;;;;;4.97;3.80;;;;;;;10.68;86.63;98611.59;4110146;28;20823;-86
2022/05/14 03:34:13;;;;;;;6.30;4.30;;;;;;;10.72;85.95;98609.63;4125375;28;20635;-85
2022/05/14 03:36:17;;;;;;;5.23;3.90;;;;;;;10.68;85.74;98608.16;4133420;28;20650;-85
2022/05/14 03:38:20;;;;;;;5.33;3.87;;;;;;;10.61;85.67;98606.84;4111187;28;20687;-85
2022/05/14 03:40:25;;;;;;;5.30;3.87;;;;;;;10.55;85.61;98607.19;4132869;28;21239;-85
2022/05/14 03:42:29;;;;;;;4.23;3.53;;;;;;;10.52;85.73;98607.38;4129803;28;20638;-85
2022/05/14 03:44:32;;;;;;;5.80;4.40;;;;;;;10.54;85.43;98615.94;4130135;28;20640;-86
2022/05/14 03:46:37;;;;;;;5.30;3.97;;;;;;;10.54;86.15;98610.72;4128967;28;21071;-86
2022/05/14 03:48:41;;;;;;;6.30;4.57;;;;;;;10.52;86.40;98612.59;4144034;28;21253;-86
2022/05/14 03:50:45;;;;;;;6.13;3.70;;;;;;;10.53;86.52;98612.50;4132282;28;20632;-85
2022/05/14 03:52:48;;;;;;;4.40;3.53;;;;;;;10.50;85.46;98604.03;4149639;28;20631;-85
2022/05/14 03:54:51;;;;;;;4.07;3.60;;;;;;;10.47;85.93;98610.25;4132668;28;20658;-85
2022/05/14 03:56:56;;;;;;;4.57;4.07;;;;;;;10.46;86.56;98612.97;4129016;28;20642;-85
2022/05/14 03:59:00;;;;;;;5.60;3.87;;;;;;;10.44;86.64;98620.03;4128503;28;20656;-85
2022/05/14 04:01:04;;;;;;;8.93;3.90;;;;;;;10.47;86.46;98615.47;4137279;28;20627;-85
2022/05/14 04:03:07;;;;;;;5.03;3.60;;;;;;;10.46;86.04;98616.44;4131381;28;20721;-85
2022/05/14 04:05:11;;;;;;;6.10;4.23;;;;;;;10.41;86.17;98612.41;4132706;28;20611;-85
2022/05/14 04:07:15;;;;;;;4.70;3.90;;;;;;;10.39;86.38;98609.88;4148023;28;20660;-85
2022/05/14 04:09:19;;;;;;;5.17;3.50;;;;;;;10.40;85.88;98608.09;4145626;28;20625;-85
2022/05/14 04:11:22;;;;;;;4.73;3.80;;;;;;;10.41;86.90;98601.97;4135282;28;20646;-85
2022/05/14 04:13:27;;;;;;;4.93;3.80;;;;;;;10.43;86.63;98603.56;4128356;28;20724;-85
2022/05/14 04:15:32;;;;;;;9.97;3.90;;;;;;;10.45;86.75;98606.91;4153470;28;21084;-85
2022/05/14 04:17:36;;;;;;;5.70;3.73;;;;;;;10.46;87.07;98602.53;4117847;28;21215;-85
2022/05/14 04:19:39;;;;;;;4.60;4.07;;;;;;;10.48;87.17;98609.34;4146656;28;20642;-85
2022/05/14 04:21:43;;;;;;;4.70;3.77;;;;;;;10.55;86.84;98609.81;4128676;28;20650;-85
2022/05/14 04:23:47;;;;;;;6.57;4.10;;;;;;;10.58;87.02;98607.03;4127900;28;21178;-85
2022/05/14 04:25:51;;;;;;;6.87;4.37;;;;;;;10.61;86.76;98612.88;4145187;28;20638;-86
2022/05/14 04:27:57;;;;;;;6.03;4.10;;;;;;;10.62;86.69;98609.34;4149879;28;20628;-86
2022/05/14 04:30:03;;;;;;;6.90;3.83;;;;;;;10.66;86.96;98610.84;4135386;28;20693;-85
2022/05/14 04:32:08;;;;;;;5.00;3.30;;;;;;;10.69;87.35;98609.81;4147386;28;21200;-85
2022/05/14 04:34:17;;;;;;;5.17;3.93;;;;;;;10.73;86.36;98612.13;4130953;28;20644;-85
2022/05/14 04:36:21;;;;;;;3.63;3.13;;;;;;;10.76;87.34;98609.34;4130653;28;20757;-86
2022/05/14 04:38:25;;;;;;;5.23;3.40;;;;;;;10.79;86.99;98616.16;4128037;28;20642;-85
2022/05/14 04:40:29;;;;;;;4.70;3.83;;;;;;;10.84;86.81;98617.56;4129955;28;21071;-86
2022/05/14 04:42:33;;;;;;;4.63;3.77;;;;;;;10.90;86.92;98614.59;4133217;28;21206;-85
2022/05/14 04:44:38;;;;;;;4.40;4.00;;;;;;;10.93;86.24;98615.22;4145390;28;20649;-85
2022/05/14 04:46:44;;;;;;;3.87;3.47;;;;;;;10.96;86.26;98615.03;4129002;28;20715;-86
2022/05/14 04:48:47;;;;;;;6.30;4.33;;;;;;;11.00;86.36;98616.50;4126604;28;20632;-86
2022/05/14 04:50:51;;;;;;;6.33;3.70;;;;;;;11.06;86.81;98625.75;4128103;28;20643;-86
2022/05/14 04:52:55;;;;;;;6.60;4.20;;;;;;;11.07;86.25;98623.03;4109422;28;20642;-85
2022/05/14 04:54:59;;;;;;;4.67;3.77;;;;;;;11.12;85.08;98626.19;4129088;28;20717;-86
2022/05/14 04:57:04;;;;;;;3.90;3.50;;;;;;;11.12;84.88;98625.38;4133168;28;20676;-85
2022/05/14 04:59:07;;;;;;;6.07;3.53;;;;;;;11.14;85.86;98626.97;4131183;28;20717;-86
2022/05/14 05:01:11;;;;;;;4.80;3.80;;;;;;;11.18;86.42;98632.81;4144625;28;20677;-85
2022/05/14 05:03:19;;;;;;;4.30;3.43;;;;;;;11.24;87.43;98635.88;4126931;28;21275;-86
2022/05/14 05:05:30;;;;;;;4.87;3.87;;;;;;;11.28;86.50;98632.97;4125791;28;20648;-86
2022/05/14 05:07:33;;;;;;;5.13;3.90;;;;;;;11.33;85.89;98641.34;4129306;28;20643;-86
2022/05/14 05:09:37;;;;;;;7.33;3.83;;;;;;;11.40;86.09;98636.63;4127370;28;20695;-86
2022/05/14 05:11:40;;;;;;;4.00;3.60;;;;;;;11.44;86.52;98644.16;4131711;28;20731;-86
2022/05/14 05:13:43;;;;;;;4.30;3.90;;;;;;;11.47;86.92;98644.00;4143995;28;20634;-86
2022/05/14 05:15:47;;;;;;;7.20;4.40;;;;;;;11.53;86.56;98645.38;4125466;28;21263;-86
2022/05/14 05:17:50;;;;;;;5.40;3.80;;;;;;;11.59;87.36;98640.63;4128531;28;20626;-86
2022/05/14 05:19:55;;;;;;;4.70;3.63;;;;;;;11.65;85.60;98648.06;4131361;28;20692;-86
2022/05/14 05:21:59;;;;;;;5.60;3.77;;;;;;;11.72;87.37;98643.28;4127410;28;21054;-86
2022/05/14 05:24:05;;;;;;;6.40;4.20;;;;;;;11.78;85.68;98641.94;4127078;28;20642;-85
2022/05/14 05:26:09;;;;;;;5.33;4.20;;;;;;;11.89;85.11;98641.25;4111475;28;20640;-86
2022/05/14 05:28:12;;;;;;;6.30;4.70;;;;;;;11.97;85.80;98645.03;4145489;28;20638;-85
2022/05/14 05:30:16;;;;;;;6.53;4.77;;;;;;;12.07;84.99;98653.13;4131421;28;21203;-86
2022/05/14 05:32:19;;;;;;;10.87;4.67;;;;;;;12.23;85.25;98651.19;4127100;28;20628;-86
2022/05/14 05:34:23;;;;;;;5.30;4.73;;;;;;;12.46;83.97;98639.09;4112243;28;20633;-86
2022/05/14 05:36:28;;;;;;;6.90;5.23;;;;;;;12.74;82.72;98642.34;4127956;28;20652;-86
2022/05/14 05:38:31;;;;;;;4.13;3.73;;;;;;;13.05;84.06;98644.59;4127315;28;20636;-86
2022/05/14 05:40:34;;;;;;;6.77;4.30;;;;;;;13.39;83.26;98654.38;4148811;28;20663;-85
2022/05/14 05:42:38;;;;;;;5.70;4.10;;;;;;;13.72;81.46;98651.00;4129594;28;20689;-86
2022/05/14 05:44:42;;;;;;;4.80;3.83;;;;;;;14.03;81.08;98652.28;4128327;28;20643;-86
2022/05/14 05:46:45;;;;;;;6.30;4.57;;;;;;;14.28;79.20;98651.22;4129145;28;20642;-86
2022/05/14 05:48:48;;;;;;;6.30;3.97;;;;;;;14.54;78.75;98650.13;4110576;28;20628;-86
2022/05/14 05:50:53;;;;;;;7.77;4.40;;;;;;;14.80;78.90;98649.78;4131044;28;20649;-86
2022/05/14 05:52:58;;;;;;;5.77;3.87;;;;;;;15.10;77.43;98652.69;4124467;28;20673;-86
2022/05/14 05:57:30;;;;;;;4.03;3.67;;;;;;;15.70;77.91;98651.38;4130988;28;20668;-87
2022/05/14 05:59:33;;;;;;;5.80;3.83;;;;;;;15.99;75.02;98665.66;4129083;28;20670;-86
2022/05/14 06:01:36;;;;;;;6.30;4.10;;;;;;;16.21;75.22;98656.72;4143407;28;20656;-87
2022/05/14 06:03:40;;;;;;;6.40;4.33;;;;;;;16.43;74.88;98653.19;4128351;28;20666;-85
2022/05/14 06:05:44;;;;;;;5.53;4.23;;;;;;;16.70;75.16;98655.22;4130854;28;20634;-86
2022/05/14 06:07:48;;;;;;;6.33;4.30;;;;;;;16.99;76.05;98662.34;4109497;28;20671;-87
2022/05/14 06:09:53;;;;;;;6.20;4.50;;;;;;;17.26;75.26;98657.38;4131027;28;20635;-87
2022/05/14 06:11:58;;;;;;;5.77;4.07;;;;;;;17.46;72.60;98663.56;4118037;28;20627;-87
2022/05/14 06:14:01;;;;;;;7.90;4.07;;;;;;;17.62;72.87;98668.22;4134060;28;20730;-87
2022/05/14 06:16:05;;;;;;;5.13;3.50;;;;;;;17.83;71.19;98670.75;4146117;28;20630;-87
2022/05/14 06:18:09;;;;;;;4.17;3.50;;;;;;;17.96;70.95;98673.00;4114549;28;21229;-87
2022/05/14 06:20:14;;;;;;;6.67;4.13;;;;;;;18.21;71.11;98663.78;4146265;28;20712;-87
2022/05/14 06:22:18;;;;;;;11.13;4.10;;;;;;;18.41;70.45;98667.13;4131675;28;20630;-87
2022/05/14 06:24:21;;;;;;;5.17;3.60;;;;;;;18.56;69.04;98664.91;4113059;28;20817;-87
2022/05/14 06:26:26;;;;;;;5.20;3.90;;;;;;;18.76;69.97;98670.03;4113740;28;20731;-86
2022/05/14 06:28:29;;;;;;;4.10;3.30;;;;;;;19.01;69.05;98674.72;4109852;28;20644;-87
2022/05/14 06:30:33;;;;;;;4.20;3.40;;;;;;;19.29;69.37;98676.47;4127680;28;20631;-87
2022/05/14 06:32:37;;;;;;;5.10;3.50;;;;;;;19.54;67.23;98681.97;4110008;28;20648;-86
2022/05/14 06:34:40;;;;;;;5.47;2.90;;;;;;;19.73;66.07;98677.44;4110244;28;20683;-87
2022/05/14 06:36:44;;;;;;;4.03;3.37;;;;;;;19.91;68.18;98678.34;4112034;28;20739;-88
2022/05/14 06:38:47;;;;;;;9.13;3.37;;;;;;;20.10;66.18;98683.50;4126825;28;20678;-85
2022/05/14 06:40:51;;;;;;;5.40;3.40;;;;;;;20.17;63.25;98680.13;4128857;28;20714;-84
2022/05/14 06:42:55;;;;;;;3.90;3.20;;;;;;;20.22;64.02;98677.03;4109282;28;20684;-85
2022/05/14 06:44:59;;;;;;;4.43;3.10;;;;;;;20.30;64.04;98669.16;4124926;28;20643;-86
2022/05/14 06:47:02;;;;;;;4.63;3.37;;;;;;;20.46;64.83;98672.78;4109344;28;21145;-87
2022/05/14 06:49:12;;;;;;;8.77;4.37;;;;;;;20.58;66.41;98667.13;4124635;28;20678;-85
2022/05/14 06:51:18;;;;;;;4.60;3.20;;;;;;;20.69;62.93;98668.72;4108076;28;20670;-82
2022/05/14 06:53:22;;;;;;;7.07;3.80;;;;;;;20.87;65.07;98673.03;4135618;28;20646;-83
2022/05/14 06:55:28;;;;;;;4.50;3.40;;;;;;;21.07;64.74;98667.38;4134390;28;20626;-83
2022/05/14 06:57:32;;;;;;;6.33;3.47;;;;;;;21.09;63.14;98672.53;4130328;28;20628;-84
2022/05/14 06:59:38;;;;;;;5.50;3.33;;;;;;;21.13;63.20;98668.59;4125118;28;20714;-85
2022/05/14 07:01:43;;;;;;;4.90;4.00;;;;;;;21.25;64.24;98670.81;4143072;28;20713;-84
2022/05/14 07:08:29;;;;;;;5.70;3.23;;;;;;;21.81;64.80;98675.47;4128380;28;20730;-84
2022/05/14 07:10:33;;;;;;;7.17;3.47;;;;;;;22.09;62.96;98678.72;4147393;28;20661;-85
2022/05/14 07:12:36;;;;;;;5.67;3.27;;;;;;;22.35;63.58;98685.63;4147381;28;20642;-82
2022/05/14 07:14:43;;;;;;;6.80;3.60;;;;;;;22.56;62.60;98678.84;4133635;28;20646;-84
2022/05/14 07:16:48;;;;;;;3.60;2.90;;;;;;;22.69;59.93;98686.34;4120197;28;21098;-85
2022/05/14 07:18:52;;;;;;;4.30;3.27;;;;;;;22.81;60.02;98677.88;4110847;28;21095;-87
2022/05/14 07:20:56;;;;;;;5.80;3.00;;;;;;;22.84;58.68;98682.88;4115365;28;21128;-84
2022/05/14 07:22:59;;;;;;;4.33;2.97;;;;;;;22.90;58.57;98677.72;4146246;28;20692;-82
2022/05/14 07:25:03;;;;;;;2.70;2.30;;;;;;;23.05;59.75;98689.38;4124522;28;20650;-82
2022/05/14 07:27:10;;;;;;;8.93;2.40;;;;;;;23.21;57.99;98684.88;4131057;28;20632;-82
2022/05/14 07:29:15;;;;;;;4.57;2.60;;;;;;;23.25;57.88;98690.69;4135062;28;20639;-82
2022/05/14 07:31:20;;;;;;;3.50;3.00;;;;;;;23.34;57.45;98695.81;4128826;28;20677;-82
2022/05/14 07:33:23;;;;;;;6.83;2.63;;;;;;;23.53;57.72;98695.47;4129746;28;20620;-82
2022/05/14 07:35:26;;;;;;;3.47;2.50;;;;;;;23.63;56.46;98692.59;4145681;28;20637;-82
2022/05/14 07:37:34;;;;;;;5.10;2.53;;;;;;;23.70;57.81;98691.78;4129526;28;20647;-82
2022/05/14 07:39:39;;;;;;;4.47;2.30;;;;;;;23.91;57.96;98692.03;4129285;28;20737;-84
2022/05/14 07:41:45;;;;;;;5.07;2.33;;;;;;;24.09;57.57;98695.31;4143061;28;20646;-82
2022/05/14 07:43:50;;;;;;;4.80;2.53;;;;;;;24.13;57.51;98693.94;4115307;28;20635;-84
2022/05/14 07:45:58;;;;;;;6.13;2.60;;;;;;;24.23;58.13;98690.88;4125675;28;20666;-85
2022/05/14 07:48:05;;;;;;;3.43;2.57;;;;;;;24.32;56.30;98691.66;4126977;28;20645;-86
2022/05/14 07:50:09;;;;;;;3.70;2.60;;;;;;;24.32;55.40;98697.00;4123181;28;20655;-87
2022/05/14 07:52:12;;;;;;;3.60;2.37;;;;;;;24.32;55.84;98703.19;4106830;28;20683;-86
2022/05/14 07:54:16;;;;;;;7.00;2.10;;;;;;;24.47;57.57;98690.78;4147476;28;20628;-85
2022/05/14 07:56:19;;;;;;;2.70;1.77;;;;;;;24.54;52.78;98694.41;4108741;28;20648;-83
2022/05/14 07:58:24;;;;;;;3.27;2.10;;;;;;;24.60;53.69;98691.03;4132370;28;20760;-85
2022/05/14 08:00:27;;;;;;;4.00;2.00;;;;;;;24.63;52.78;98688.00;4128555;28;20643;-84
2022/05/14 08:02:34;;;;;;;4.90;2.63;;;;;;;24.63;54.05;98690.69;4124979;28;20657;-84
2022/05/14 08:04:41;;;;;;;3.80;2.40;;;;;;;24.71;55.41;98688.75;4126729;28;21181;-86
2022/05/14 08:06:45;;;;;;;5.80;3.00;;;;;;;24.82;55.32;98688.38;4141376;28;20701;-86
2022/05/14 08:08:48;;;;;;;8.90;2.53;;;;;;;24.95;53.18;98685.09;4131367;28;20751;-85
2022/05/14 08:10:52;;;;;;;2.80;2.13;;;;;;;24.94;53.45;98686.94;4127290;28;20643;-86
2022/05/14 08:12:56;;;;;;;4.73;2.27;;;;;;;24.81;54.71;98691.22;4108280;28;20639;-87
2022/05/14 08:15:00;;;;;;;3.00;2.20;;;;;;;24.87;52.94;98690.50;4132255;28;20628;-84
2022/05/14 08:17:03;;;;;;;3.00;1.80;;;;;;;24.93;55.91;98685.28;4129344;28;20632;-85
2022/05/14 08:19:07;;;;;;;5.03;2.43;;;;;;;25.13;54.64;98692.63;4145810;28;20623;-85
2022/05/14 08:25:53;;;;;;;5.63;2.57;;;;;;;25.32;52.40;98676.09;4128716;28;20627;-86
2022/05/14 08:27:57;;;;;;;4.60;1.90;;;;;;;25.40;51.74;98686.69;4131769;28;20639;-84
2022/05/14 08:30:00;;;;;;;4.13;1.50;;;;;;;25.42;50.87;98687.34;4128670;28;21226;-85
2022/05/14 08:32:05;;;;;;;3.83;1.90;;;;;;;25.46;51.17;98677.13;4113135;28;20636;-86
2022/05/14 08:34:09;;;;;;;7.20;1.97;;;;;;;25.49;52.79;98679.44;4131968;28;20685;-85
2022/05/14 08:36:14;;;;;;;3.60;1.73;;;;;;;25.44;50.98;98677.31;4129708;28;20631;-86
2022/05/14 08:38:18;;;;;;;3.40;2.40;;;;;;;25.45;52.37;98680.81;4119315;28;20633;-84
2022/05/14 08:40:23;;;;;;;3.90;1.60;;;;;;;25.52;51.34;98679.88;4139703;28;20631;-91
2022/05/14 08:42:33;;;;;;;3.57;1.90;;;;;;;25.52;50.65;98679.06;4114369;28;20652;-88
2022/05/14 08:44:37;;;;;;;3.93;2.10;;;;;;;25.47;52.36;98668.06;4135054;28;20637;-86
2022/05/14 08:46:42;;;;;;;3.97;1.80;;;;;;;25.57;52.77;98674.00;4120508;28;20747;-86
2022/05/14 08:48:49;;;;;;;4.50;1.93;;;;;;;25.49;53.00;98666.06;4129521;28;21213;-86
2022/05/14 08:50:57;;;;;;;5.37;1.90;;;;;;;25.42;53.36;98665.94;4113819;28;20639;-86
2022/05/14 08:53:03;;;;;;;9.13;1.80;;;;;;;25.57;53.05;98664.13;4130684;28;20741;-86
2022/05/14 08:55:09;;;;;;;2.47;1.70;;;;;;;25.63;52.37;98660.72;4136723;28;20984;-86
2022/05/14 08:57:17;;;;;;;7.40;2.43;;;;;;;25.69;52.99;98657.34;4129220;28;20694;-86
2022/05/14 08:59:34;;;;;;;4.10;1.60;;;;;;;25.74;52.91;98661.13;4133599;28;20635;-86
2022/05/14 09:01:40;;;;;;;3.43;1.80;;;;;;;25.70;49.02;98665.16;4133325;28;20689;-86
2022/05/14 09:03:44;;;;;;;3.10;1.53;;;;;;;25.56;51.45;98657.13;4136673;28;20667;-86
2022/05/14 09:05:54;;;;;;;5.63;1.90;;;;;;;25.65;52.38;98661.41;4148665;28;20641;-86
2022/05/14 09:07:58;;;;;;;3.67;1.70;;;;;;;25.52;49.87;98658.50;4134109;28;20617;-86
2022/05/14 09:10:06;;;;;;;4.00;1.53;;;;;;;25.44;52.72;98649.75;4148744;28;21198;-86
2022/05/14 09:12:10;;;;;;;3.73;1.40;;;;;;;25.43;49.63;98658.78;4131500;28;21080;-86
2022/05/14 09:14:22;;;;;;;3.63;1.90;;;;;;;25.54;50.41;98656.47;4110008;28;20639;-86
2022/05/14 09:16:30;;;;;;;2.37;1.90;;;;;;;25.69;52.55;98658.19;4131947;28;21085;-86
2022/05/14 09:18:43;;;;;;;3.20;1.63;;;;;;;25.73;50.71;98650.63;4111930;28;20644;-86
2022/05/14 09:20:48;;;;;;;2.83;1.80;;;;;;;25.62;52.04;98654.56;4134631;28;20635;-86
2022/05/14 09:22:55;;;;;;;3.20;1.47;;;;;;;25.67;53.37;98654.03;4144085;28;20650;-86
2022/05/14 09:25:14;;;;;;;3.17;1.50;;;;;;;25.63;53.60;98648.19;4141815;28;20627;-86
2022/05/14 09:27:23;;;;;;;4.43;1.50;;;;;;;25.62;53.21;98653.72;4114338;28;20623;-86
2022/05/14 09:29:27;;;;;;;3.07;1.47;;;;;;;25.64;51.44;98649.06;4136991;28;20638;-86
2022/05/14 09:31:33;;;;;;;2.80;1.50;;;;;;;25.74;50.08;98646.91;4134564;28;21066;-86
2022/05/14 09:33:40;;;;;;;3.97;1.47;;;;;;;25.86;51.05;98650.78;4146601;28;20639;-86
2022/05/14 09:36:05;;;;;;;1.97;1.40;;;;;;;26.01;50.80;98649.75;4127729;28;20634;-85
2022/05/14 09:38:11;;;;;;;4.40;1.50;;;;;;;26.06;50.42;98654.56;4132945;28;20627;-86
2022/05/14 09:40:21;;;;;;;3.20;1.50;;;;;;;26.08;51.35;98648.81;4150410;28;20717;-86
2022/05/14 09:42:27;;;;;;;5.00;1.80;;;;;;;26.06;50.18;98649.19;4130111;28;20659;-86
2022/05/14 09:44:36;;;;;;;4.17;1.43;;;;;;;25.94;48.43;98645.34;4137809;28;20623;-86
2022/05/14 09:46:40;;;;;;;2.50;1.40;;;;;;;25.74;51.27;98642.41;4129905;28;20631;-86
2022/05/14 09:48:48;;;;;;;4.53;1.40;;;;;;;25.73;50.11;98647.94;4141497;28;20651;-86
2022/05/14 09:50:56;;;;;;;5.00;1.50;;;;;;;25.77;51.80;98651.88;4131919;28;20656;-86
2022/05/14 09:53:05;;;;;;;3.20;1.60;;;;;;;25.91;51.40;98651.06;4110769;28;20629;-87
2022/05/14 09:55:09;;;;;;;3.00;1.83;;;;;;;25.69;48.72;98652.00;4135096;28;21007;-88
2022/05/14 09:57:35;;;;;;;4.93;1.80;;;;;;;25.69;51.25;98658.19;4130879;28;20663;-89
2022/05/14 09:59:49;;;;;;;7.67;1.83;;;;;;;25.72;50.96;98648.94;4134544;28;20678;-86
2022/05/14 10:01:58;;;;;;;2.37;1.40;;;;;;;25.70;53.17;98649.13;4149539;28;20625;-86
2022/05/14 10:04:17;;;;;;;3.43;1.80;;;;;;;25.74;50.93;98652.25;4134864;28;20662;-86
2022/05/14 10:06:29;;;;;;;4.83;1.80;;;;;;;25.78;51.42;98650.88;4144134;28;20641;-85
2022/05/14 10:08:46;;;;;;;7.10;2.80;;;;;;;25.83;52.18;98651.16;4134543;28;21224;-84